x

9441102 - Westport, Wa (wptw1) Weather Station

9:36pm - Thu 22nd Jun 2017 All times are PDT. -7 hours from GMT.

  • Wind
    16mph, 21mph gusts
  • Sea Temp 57°f
  • Air Temp 55°f
  • Sea Pressure 1023.9mb
  • 9441102 - Westport, Wa
  • 9441102 - Westport, Wa

More Historic Weather Station data

Upgrade to MSW Pro to gain access to the past 30 days of data for over 8000 Wavebouys and Weather Stations around the globe.

Join Pro

Comparision Forecast

View Surf forecast
   
Thu 06/22 9:36pm 16 21 mph 1023.9mb 57f 55f
9:30pm 17 21 mph 1023.8mb 57f 55f
9:24pm 18 22 mph 1023.8mb 57f 56f
9:18pm 18 22 mph 1023.8mb 57f 56f
9:12pm 20 23 mph 1023.8mb 57f 56f
9:06pm 20 24 mph 1023.8mb 57f 56f
9:00pm 20 24 mph 1023.7mb 57f 56f
8:36pm 23 25 mph 1023.7mb 58f 56f
8:30pm 23 26 mph 1023.7mb 59f 56f
8:24pm 24 28 mph 1023.7mb 60f 56f
8:18pm 24 29 mph 1023.8mb 60f 56f
8:12pm 25 30 mph 1023.8mb 60f 56f
8:06pm 24 28 mph 1023.7mb 60f 57f
8:00pm 25 29 mph 1023.7mb 60f 57f
7:36pm 25 30 mph 1023.9mb 60f 57f
7:30pm 25 30 mph 1023.9mb 60f 57f
7:24pm 25 29 mph 1023.9mb 59f 57f
7:18pm 24 29 mph 1024mb 59f 57f
7:12pm 25 30 mph 1024mb 59f 57f
7:06pm 25 30 mph 1024mb 59f 57f
7:00pm 26 30 mph 1023.9mb 59f 57f
6:36pm 26 29 mph 1023.9mb 58f 57f
6:30pm 25 30 mph 1023.9mb 58f 57f
6:24pm 25 29 mph 1023.9mb 58f 57f
6:18pm 24 28 mph 1023.8mb 58f 57f
6:12pm 23 26 mph 1023.8mb 58f 57f
6:06pm 22 25 mph 1023.9mb 58f 58f
6:00pm 23 24 mph 1024mb 58f 58f
5:36pm 20 23 mph 1024.2mb 57f 58f
5:30pm 17 21 mph 1024.2mb 57f 58f
5:24pm 20 22 mph 1024.3mb 57f 58f
5:18pm 20 22 mph 1024.5mb 57f 58f
5:12pm 18 22 mph 1024.5mb 57f 58f
5:06pm 21 23 mph 1024.5mb 57f 58f
5:00pm 18 22 mph 1024.6mb 57f 58f
4:36pm 21 24 mph 1024.6mb 56f 58f
4:30pm 20 22 mph 1024.7mb 56f 58f
4:24pm 20 22 mph 1024.6mb 56f 58f
4:18pm 20 24 mph 1024.6mb 56f 58f
4:12pm 21 23 mph 1024.7mb 56f 58f
4:06pm 21 23 mph 1024.7mb 56f 58f
4:00pm 18 22 mph 1024.7mb 56f 58f
3:36pm 21 24 mph 1024.9mb 55f 58f
3:30pm 20 24 mph 1025mb 56f 57f
3:24pm 22 25 mph 1025mb 57f 57f
3:18pm 21 26 mph 1025mb 58f 58f
3:12pm 22 25 mph 1025mb 58f 58f
3:06pm 21 26 mph 1025.1mb 58f 57f
3:00pm 24 28 mph 1025.2mb 58f 57f
2:36pm 23 26 mph 1025.4mb 55f 57f
2:30pm 23 25 mph 1025.4mb 53f 57f
2:24pm 23 28 mph 1025.3mb 53f 57f
2:18pm 24 26 mph 1025.3mb 53f 57f
2:12pm 22 25 mph 1025.3mb 53f 57f
2:06pm 23 25 mph 1025.2mb 52f 58f
2:00pm 22 25 mph 1025.3mb 52f 57f
1:36pm 24 26 mph 1025.5mb 51f 57f
1:30pm 21 24 mph 1025.4mb 51f 57f
1:24pm 20 23 mph 1025.4mb 51f 57f
1:18pm 22 23 mph 1025.4mb 51f 57f
1:12pm 21 23 mph 1025.4mb 51f 57f
1:06pm 20 21 mph 1025.5mb 51f 57f
1:00pm 18 20 mph 1025.5mb 51f 57f
12:36pm 15 16 mph 1025.4mb 51f 57f
12:30pm 14 16 mph 1025.4mb 51f 57f
12:24pm 14 15 mph 1025.4mb 51f 57f
12:18pm 14 15 mph 1025.5mb 51f 57f
12:12pm 14 15 mph 1025.6mb 51f 57f
12:06pm 15 16 mph 1025.7mb 51f 57f
12:00pm 15 16 mph 1025.7mb 51f 58f
11:36am 13 14 mph 1025.8mb 52f 59f
11:30am 11 13 mph 1025.8mb 52f 59f
11:24am 11 11 mph 1025.9mb 53f 59f
11:18am 11 11 mph 1025.9mb 53f 59f
11:12am 10 13 mph 1026mb 53f 59f
11:06am 11 14 mph 1026.2mb 54f 59f
11:00am 10 11 mph 1026.2mb 55f 59f
10:36am 8 10 mph 1026.1mb 57f 60f
10:30am 6 8 mph 1026.1mb 57f 60f
10:24am 8 9 mph 1026.2mb 57f 60f
10:18am 5 6 mph 1026.3mb 58f 62f
10:12am 3 5 mph 1026.3mb 58f 62f
10:06am 3 5 mph 1026.3mb 58f 64f
10:00am 3 5 mph 1026.4mb 58f 63f
9:36am 3 6 mph 1026.4mb 58f 61f
9:30am 3 5 mph 1026.5mb 58f 61f
9:24am 5 6 mph 1026.5mb 58f 60f
9:18am 5 7 mph 1026.6mb 58f 59f
9:12am 6 7 mph 1026.7mb 58f 58f
9:06am 7 8 mph 1026.7mb 58f 58f
9:00am 6 7 mph 1026.6mb 58f 57f
8:36am 5 9 mph 1026.5mb 58f 56f
8:30am 6 9 mph 1026.5mb 58f 56f
8:24am 7 8 mph 1026.4mb 58f 56f
8:18am 8 9 mph 1026.4mb 58f 55f
8:12am 6 8 mph 1026.3mb 58f 56f
8:06am 7 8 mph 1026.2mb 59f 55f
8:00am 6 9 mph 1026.2mb 59f 55f
7:36am 6 9 mph 1026.1mb 60f 55f
7:30am 8 10 mph 1026.1mb 60f 54f
7:24am 10 11 mph 1026.2mb 60f 54f
7:18am 8 11 mph 1026.1mb 60f 54f
7:12am 8 10 mph 1026.2mb 60f 54f
7:06am 7 9 mph 1026.2mb 60f 53f
7:00am 8 10 mph 1026.2mb 60f 53f
6:36am 7 9 mph 1026.1mb 59f 53f
6:30am 6 7 mph 1026.1mb 59f 53f
6:24am 7 9 mph 1026.2mb 59f 53f
6:18am 8 9 mph 1026.1mb 59f 53f
6:12am 8 9 mph 1026.1mb 59f 53f
6:06am 6 7 mph 1026mb 59f 52f
6:00am 6 7 mph 1025.8mb 59f 52f
5:36am 6 7 mph 1025.9mb 59f 52f
5:30am 6 7 mph 1025.8mb 59f 52f
5:24am 6 7 mph 1025.8mb 59f 52f
5:18am 7 7 mph 1025.9mb 59f 52f
5:12am 7 9 mph 1026mb 59f 52f
5:06am 8 9 mph 1025.9mb 59f 52f
5:00am 8 9 mph 1025.8mb 59f 52f
4:36am 8 9 mph 1025.8mb 59f 52f
4:30am 7 9 mph 1025.9mb 59f 52f
4:24am 7 8 mph 1025.8mb 59f 52f
4:18am 8 8 mph 1025.9mb 58f 52f
4:12am 7 9 mph 1025.9mb 58f 52f
4:06am 7 8 mph 1025.9mb 58f 52f
4:00am 7 9 mph 1025.9mb 58f 52f
3:36am 9 10 mph 1025.9mb 58f 52f
3:30am 9 10 mph 1025.8mb 58f 52f
3:24am 8 10 mph 1025.9mb 58f 52f
3:18am 9 10 mph 1025.9mb 58f 51f
3:12am 8 9 mph 1026mb 58f 52f
3:06am 8 9 mph 1025.9mb 58f 52f
3:00am 8 9 mph 1025.9mb 58f 52f
2:36am 7 10 mph 1026mb 58f 52f
2:30am 8 11 mph 1026mb 58f 52f
2:24am 10 13 mph 1026mb 57f 53f
2:18am 13 14 mph 1026mb 57f 53f
2:12am 11 14 mph 1026mb 58f 53f
2:06am 11 14 mph 1026mb 58f 53f
2:00am 13 16 mph 1026mb 58f 53f
1:36am 14 17 mph 1025.9mb 57f 54f
1:30am 13 17 mph 1025.9mb 57f 54f
1:24am 14 16 mph 1025.9mb 57f 54f
1:18am 15 18 mph 1025.8mb 57f 54f
1:12am 16 20 mph 1025.9mb 56f 54f
1:06am 14 20 mph 1025.9mb 56f 54f
1:00am 15 18 mph 1026mb 56f 54f
12:36am 16 20 mph 1026mb 56f 54f
12:30am 16 20 mph 1026.1mb 56f 54f
12:24am 16 20 mph 1026mb 56f 54f
12:18am 17 21 mph 1025.9mb 55f 54f
12:12am 16 21 mph 1025.9mb 55f 54f
12:06am 17 20 mph 1025.9mb 55f 54f
12:00am 15 18 mph 1025.9mb 55f 54f
Wed 06/21 11:36pm 18 22 mph 1026mb 54f 54f
11:30pm 18 22 mph 1026mb 54f 54f
11:24pm 16 20 mph 1026mb 54f 54f
11:18pm 20 22 mph 1026mb 55f 54f
11:12pm 18 22 mph 1026.1mb 55f 54f
11:06pm 21 24 mph 1026.1mb 55f 54f
11:00pm 21 22 mph 1026.2mb 55f 54f
10:54pm 15 18 mph 1026.2mb 55f 54f
10:48pm 17 21 mph 1026.1mb 55f 54f
10:36pm 17 21 mph 1026.1mb 55f 54f
10:30pm 16 21 mph 1026.2mb 55f 54f
10:24pm 21 24 mph 1026.3mb 56f 55f
10:18pm 20 24 mph 1026.2mb 56f 55f
10:12pm 23 28 mph 1026.2mb 56f 55f
10:06pm 24 28 mph 1026.2mb 56f 55f
10:00pm 25 29 mph 1026.1mb 56f 55f
9:54pm 24 28 mph 1026mb 57f 55f
9:48pm 24 29 mph 1025.9mb 57f 55f
9:36pm 25 29 mph 1025.7mb 57f 55f
9:30pm 24 29 mph 1025.7mb 57f 55f
9:24pm 22 28 mph 1025.6mb 57f 55f
9:18pm 23 28 mph 1025.6mb 58f 55f
9:12pm 22 26 mph 1025.5mb 58f 55f
9:06pm 23 25 mph 1025.6mb 58f 55f
9:00pm 22 29 mph 1025.5mb 58f 55f
8:54pm 23 28 mph 1025.6mb 58f 55f
8:36pm 21 26 mph 1025.9mb 58f 55f
8:30pm 22 26 mph 1026mb 58f 55f
8:24pm 21 28 mph 1026mb 58f 55f
8:18pm 22 29 mph 1026mb 58f 56f
8:12pm 24 28 mph 1026.1mb 58f 56f
8:06pm 22 28 mph 1026.1mb 58f 56f
8:00pm 24 29 mph 1026.2mb 58f 56f
7:54pm 26 32 mph 1026.2mb 58f 56f
7:48pm 28 31 mph 1026.2mb 57f 56f
7:36pm 28 31 mph 1026.2mb 59f 56f
7:30pm 26 33 mph 1026.1mb 60f 56f
7:24pm 28 32 mph 1026.1mb 61f 56f
7:18pm 25 30 mph 1026.1mb 61f 56f
7:12pm 25 33 mph 1026.1mb 61f 56f
7:06pm 29 32 mph 1026mb 60f 56f
7:00pm 29 32 mph 1026mb 60f 56f
6:54pm 30 33 mph 1026mb 60f 56f
6:48pm 28 32 mph 1025.9mb 61f 56f
6:36pm 29 32 mph 1025.9mb 61f 56f
6:30pm 25 31 mph 1026mb 61f 56f
6:24pm 29 32 mph 1026mb 61f 56f
6:18pm 29 32 mph 1026mb 61f 56f
6:12pm 26 31 mph 1026mb 61f 56f
6:06pm 28 32 mph 1026mb 61f 56f
6:00pm 26 31 mph 1026.1mb 61f 56f
5:54pm 30 33 mph 1026mb 61f 56f
5:48pm 29 33 mph 1026mb 61f 56f
5:36pm 28 33 mph 1026.1mb 61f 56f
5:30pm 28 32 mph 1026.2mb 61f 56f
5:24pm 28 32 mph 1026.2mb 61f 56f
5:18pm 28 32 mph 1026.2mb 61f 57f
5:12pm 30 33 mph 1026.2mb 61f 56f
5:06pm 28 31 mph 1026.2mb 61f 57f
5:00pm 28 33 mph 1026.3mb 61f 56f
4:54pm 30 33 mph 1026.4mb 61f 57f
4:48pm 30 33 mph 1026.4mb 61f 57f
4:36pm 26 31 mph 1026.5mb 61f 57f
4:30pm 26 31 mph 1026.4mb 61f 56f
4:24pm 28 31 mph 1026.5mb 61f 56f
4:18pm 29 32 mph 1026.5mb 61f 56f
4:12pm 29 33 mph 1026.5mb 60f 56f
4:06pm 28 32 mph 1026.6mb 60f 56f
4:00pm 25 32 mph 1026.6mb 60f 57f
3:54pm 26 31 mph 1026.6mb 60f 57f
3:48pm 24 29 mph 1026.6mb 60f 57f
3:36pm 26 30 mph 1026.7mb 60f 56f
3:30pm 28 31 mph 1026.8mb 60f 56f
3:24pm 25 30 mph 1026.8mb 60f 56f
3:18pm 24 29 mph 1026.7mb 60f 57f
3:12pm 26 30 mph 1026.7mb 60f 56f
3:06pm 26 31 mph 1026.8mb 60f 56f
3:00pm 28 30 mph 1026.8mb 60f 56f
2:54pm 29 32 mph 1026.8mb 60f 56f
2:36pm 25 30 mph 1026.9mb 60f 56f
2:30pm 25 29 mph 1026.8mb 60f 56f
2:24pm 24 30 mph 1026.9mb 60f 56f
2:18pm 26 31 mph 1026.8mb 60f 56f
2:12pm 29 32 mph 1027mb 59f 56f
2:06pm 29 32 mph 1026.9mb 59f 56f
2:00pm 28 31 mph 1026.9mb 58f 56f
1:54pm 26 31 mph 1026.9mb 58f 56f
1:48pm 25 29 mph 1026.8mb 58f 56f
1:36pm 26 31 mph 1026.9mb 58f 56f
1:30pm 26 29 mph 1026.9mb 58f 56f
1:24pm 25 29 mph 1026.9mb 57f 56f
1:18pm 24 28 mph 1027.1mb 58f 56f
1:12pm 24 28 mph 1027.1mb 57f 57f
1:06pm 24 28 mph 1027.1mb 57f 57f
1:00pm 24 26 mph 1027.1mb 57f 57f
12:54pm 22 25 mph 1027.1mb 57f 57f
12:48pm 22 28 mph 1027.1mb 57f 57f
12:36pm 23 24 mph 1027.1mb 57f 57f
12:30pm 22 25 mph 1027.2mb 57f 56f
12:24pm 21 24 mph 1027.3mb 57f 56f
12:18pm 22 25 mph 1027.4mb 56f 56f
12:12pm 22 25 mph 1027.5mb 56f 56f
12:06pm 22 26 mph 1027.5mb 56f 56f
12:00pm 21 26 mph 1027.5mb 56f 56f
11:54am 17 23 mph 1027.5mb 56f 56f
11:48am 21 22 mph 1027.6mb 56f 56f
11:36am 20 24 mph 1027.7mb 56f 56f
11:30am 21 23 mph 1027.7mb 56f 56f
11:24am 17 21 mph 1027.8mb 56f 56f
11:18am 21 22 mph 1027.9mb 56f 56f
11:12am 17 21 mph 1027.8mb 56f 56f
11:06am 18 22 mph 1027.8mb 56f 55f
11:00am 20 23 mph 1027.7mb 56f 55f
10:54am 17 22 mph 1027.7mb 56f 55f
10:48am 18 22 mph 1027.6mb 56f 55f
10:36am 18 22 mph 1027.4mb 57f 56f
10:30am 17 20 mph 1027.4mb 57f 55f
10:24am 17 20 mph 1027.3mb 58f 55f
10:18am 17 20 mph 1027.3mb 58f 55f
10:12am 17 22 mph 1027.4mb 58f 55f
10:06am 15 18 mph 1027.5mb 58f 55f
10:00am 14 17 mph 1027.6mb 58f 55f
9:54am 15 18 mph 1027.6mb 59f 55f
9:48am 16 18 mph 1027.7mb 59f 55f
9:36am 15 20 mph 1027.6mb 59f 55f
9:30am 16 18 mph 1027.6mb 59f 55f
9:24am 17 20 mph 1027.6mb 59f 55f
9:18am 17 21 mph 1027.5mb 60f 55f
9:12am 15 17 mph 1027.5mb 60f 55f
9:06am 16 20 mph 1027.4mb 60f 55f
9:00am 15 17 mph 1027.3mb 60f 55f
8:54am 18 21 mph 1027.3mb 60f 55f
8:48am 20 22 mph 1027.3mb 60f 55f
8:36am 16 20 mph 1027mb 60f 56f
8:30am 17 22 mph 1027mb 60f 56f
8:24am 14 20 mph 1027mb 60f 56f
8:18am 14 18 mph 1027mb 60f 56f
8:12am 14 15 mph 1026.9mb 60f 56f
8:06am 14 16 mph 1026.6mb 60f 56f
8:00am 11 16 mph 1026.5mb 60f 56f
7:54am 13 15 mph 1026.5mb 60f 56f
7:48am 9 13 mph 1026.5mb 60f 56f
7:36am 11 18 mph 1026.7mb 60f 56f
7:30am 14 17 mph 1026.8mb 60f 56f
7:24am 10 14 mph 1026.8mb 60f 55f
7:18am 13 17 mph 1026.7mb 60f 55f
7:12am 16 21 mph 1026.5mb 60f 55f
7:06am 16 20 mph 1026.4mb 60f 54f
7:00am 15 18 mph 1026.4mb 60f 54f
6:54am 16 20 mph 1026.4mb 60f 54f
6:36am 17 20 mph 1026.5mb 60f 53f
6:30am 15 20 mph 1026.4mb 60f 53f
6:24am 15 18 mph 1026.3mb 60f 53f
6:18am 14 17 mph 1026.3mb 60f 53f
6:12am 14 16 mph 1026.4mb 60f 53f
6:06am 14 16 mph 1026.3mb 60f 53f
6:00am 13 17 mph 1026.3mb 60f 53f
5:54am 14 17 mph 1026.3mb 60f 53f
5:48am 15 17 mph 1026.3mb 60f 53f
5:36am 17 21 mph 1026.1mb 60f 53f
5:30am 16 20 mph 1026.1mb 60f 53f
5:24am 14 16 mph 1026.1mb 60f 53f
5:18am 14 16 mph 1026.2mb 60f 53f
5:12am 14 16 mph 1026.1mb 60f 53f
5:06am 11 14 mph 1026mb 60f 53f
5:00am 13 15 mph 1026mb 60f 53f
4:54am 14 16 mph 1026mb 60f 53f
4:48am 14 17 mph 1026mb 60f 53f
4:36am 14 17 mph 1026mb 60f 53f
4:30am 11 15 mph 1025.9mb 60f 53f
4:24am 13 16 mph 1026mb 60f 53f
4:18am 14 18 mph 1026.1mb 60f 53f
4:12am 14 18 mph 1026.1mb 60f 53f
4:06am 13 16 mph 1026.1mb 60f 53f
4:00am 15 17 mph 1026.2mb 60f 53f
3:54am 15 17 mph 1026.1mb 60f 53f
3:48am 13 15 mph 1026mb 60f 53f
3:36am 15 18 mph 1025.9mb 60f 53f
3:30am 15 20 mph 1025.9mb 60f 53f
3:24am 15 17 mph 1025.8mb 60f 53f
3:18am 15 18 mph 1025.7mb 60f 53f
3:12am 15 18 mph 1025.6mb 61f 53f
3:06am 14 16 mph 1025.5mb 61f 53f
3:00am 15 17 mph 1025.4mb 61f 53f
2:54am 15 18 mph 1025.3mb 61f 53f
2:48am 15 17 mph 1025.2mb 61f 53f
2:36am 14 18 mph 1025.2mb 61f 53f
2:30am 15 18 mph 1025.2mb 61f 53f
2:24am 17 20 mph 1025.3mb 61f 53f
2:18am 16 20 mph 1025.3mb 61f 53f
2:12am 16 20 mph 1025.4mb 61f 53f
2:06am 15 20 mph 1025.3mb 61f 53f
2:00am 15 20 mph 1025.3mb 61f 53f
1:54am 15 21 mph 1025.3mb 61f 53f
1:48am 15 20 mph 1025.1mb 61f 53f
1:36am 17 21 mph 1025.2mb 60f 54f
1:30am 16 21 mph 1025.1mb 60f 54f
1:24am 18 23 mph 1025.2mb 60f 54f
1:18am 20 23 mph 1025.2mb 60f 54f
1:12am 20 24 mph 1025.1mb 60f 54f
1:06am 20 23 mph 1025.1mb 60f 54f
1:00am 16 21 mph 1025mb 60f 54f
12:54am 17 23 mph 1024.9mb 60f 54f
12:48am 17 23 mph 1025mb 60f 54f
12:36am 18 23 mph 1025.1mb 60f 54f
12:30am 17 21 mph 1025.1mb 60f 54f
12:24am 17 21 mph 1025.2mb 60f 54f
12:18am 18 21 mph 1025.1mb 60f 54f
12:12am 20 23 mph 1025.1mb 60f 55f
12:06am 20 30 mph 1025.1mb 59f 55f
12:00am 26 31 mph 1025mb 59f 55f
Tue 06/20 11:54pm 26 32 mph 1025mb 60f 55f
11:48pm 22 30 mph 1024.9mb 60f 55f
11:36pm 25 31 mph 1024.8mb 60f 55f
11:30pm 28 30 mph 1024.8mb 60f 55f
11:24pm 26 31 mph 1024.9mb 60f 55f
11:18pm 26 31 mph 1024.8mb 60f 55f
11:12pm 23 29 mph 1025mb 60f 55f
11:06pm 25 30 mph 1025mb 59f 55f
11:00pm 28 32 mph 1025mb 59f 55f
10:54pm 29 32 mph 1025.1mb 59f 55f
10:48pm 28 31 mph 1025.1mb 59f 55f
10:36pm 24 34 mph 1024.8mb 59f 55f
10:30pm 30 34 mph 1024.9mb 59f 55f
10:24pm 28 33 mph 1024.9mb 59f 55f
10:18pm 29 37 mph 1024.8mb 59f 55f
10:12pm 28 33 mph 1024.8mb 59f 55f
10:06pm 31 34 mph 1024.6mb 59f 55f
10:00pm 30 34 mph 1024.6mb 60f 55f
9:54pm 29 34 mph 1024.6mb 60f 55f
9:48pm 28 32 mph 1024.5mb 60f 55f
9:36pm 30 33 mph 1024.4mb 60f 55f
9:30pm 28 31 mph 1024.4mb 60f 55f
9:24pm 26 31 mph 1024.2mb 60f 55f
9:18pm 28 31 mph 1024.2mb 60f 56f
9:12pm 24 30 mph 1024.1mb 60f 56f
9:06pm 28 32 mph 1024.2mb 60f 56f
9:00pm 26 32 mph 1024.2mb 61f 56f
8:54pm 29 32 mph 1024.3mb 61f 56f
8:48pm 30 34 mph 1024.3mb 61f 56f
8:36pm 28 36 mph 1024.3mb 61f 56f
8:30pm 29 33 mph 1024.2mb 61f 56f
8:24pm 28 32 mph 1024.3mb 61f 56f
8:18pm 29 32 mph 1024.3mb 61f 56f
8:12pm 30 33 mph 1024.2mb 61f 56f
8:06pm 28 33 mph 1024.2mb 61f 56f
8:00pm 26 31 mph 1024.1mb 61f 56f
7:54pm 28 34 mph 1024.1mb 61f 56f
7:48pm 26 31 mph 1024.1mb 61f 56f
7:36pm 29 33 mph 1024.1mb 61f 56f
7:30pm 29 34 mph 1024.1mb 61f 56f
7:24pm 28 32 mph 1024.1mb 61f 56f
7:18pm 29 33 mph 1024mb 61f 57f
7:12pm 29 34 mph 1024mb 61f 56f
7:06pm 30 33 mph 1024mb 62f 56f
7:00pm 28 33 mph 1024mb 62f 57f
6:54pm 30 34 mph 1023.9mb 62f 56f
6:48pm 32 37 mph 1024mb 62f 56f
6:36pm 30 34 mph 1023.7mb 62f 57f
6:30pm 28 33 mph 1023.5mb 62f 57f
6:24pm 30 36 mph 1023.5mb 62f 57f
6:18pm 28 34 mph 1023.6mb 62f 57f
6:12pm 29 34 mph 1023.5mb 62f 57f
6:06pm 29 33 mph 1023.6mb 62f 57f
6:00pm 30 34 mph 1023.7mb 62f 57f
5:54pm 29 34 mph 1023.7mb 62f 57f
5:48pm 28 33 mph 1023.7mb 62f 57f
5:36pm 24 31 mph 1023.8mb 62f 57f
5:30pm 28 32 mph 1023.9mb 62f 57f
5:24pm 25 32 mph 1023.9mb 62f 57f
5:18pm 26 31 mph 1023.9mb 62f 56f
5:12pm 28 32 mph 1024mb 62f 57f
5:06pm 28 32 mph 1024.1mb 62f 56f
5:00pm 25 30 mph 1024.1mb 62f 57f
4:54pm 29 32 mph 1024.1mb 62f 56f
4:48pm 30 33 mph 1024.1mb 62f 56f
4:36pm 26 31 mph 1024mb 62f 57f
4:30pm 24 31 mph 1023.9mb 62f 57f
4:24pm 28 31 mph 1023.8mb 62f 56f
4:18pm 29 32 mph 1023.8mb 62f 56f
4:12pm 28 30 mph 1023.8mb 62f 56f
4:06pm 28 31 mph 1023.9mb 62f 56f
4:00pm 29 31 mph 1023.8mb 62f 56f
3:54pm 26 32 mph 1023.7mb 62f 57f
3:48pm 25 31 mph 1023.7mb 62f 57f
3:36pm 29 32 mph 1023.6mb 62f 57f
3:30pm 25 31 mph 1023.7mb 62f 57f
3:24pm 26 32 mph 1023.5mb 62f 57f
3:18pm 26 32 mph 1023.5mb 62f 57f
3:12pm 29 33 mph 1023.7mb 62f 57f
3:06pm 29 31 mph 1023.6mb 62f 57f
3:00pm 30 33 mph 1023.7mb 62f 57f
2:54pm 26 31 mph 1023.6mb 62f 58f
2:48pm 30 34 mph 1023.6mb 62f 57f
2:36pm 29 33 mph 1023.5mb 62f 57f
2:30pm 29 32 mph 1023.4mb 62f 57f
2:24pm 29 32 mph 1023.5mb 62f 57f
2:18pm 28 34 mph 1023.6mb 62f 57f
2:12pm 26 33 mph 1023.5mb 62f 57f
2:06pm 29 32 mph 1023.5mb 62f 57f
2:00pm 28 34 mph 1023.3mb 62f 57f
1:54pm 30 34 mph 1023.2mb 62f 57f
1:48pm 29 31 mph 1023.1mb 62f 57f
1:36pm 28 30 mph 1023.1mb 62f 57f
1:30pm 26 30 mph 1023mb 62f 57f
1:24pm 25 30 mph 1023mb 62f 57f
1:18pm 26 31 mph 1022.9mb 61f 58f
1:12pm 26 30 mph 1022.9mb 62f 57f
1:06pm 28 31 mph 1022.8mb 61f 57f
1:00pm 26 30 mph 1022.8mb 61f 57f
12:54pm 26 31 mph 1022.7mb 61f 57f
12:48pm 28 30 mph 1022.6mb 61f 57f
12:36pm 28 31 mph 1022.4mb 60f 57f
12:30pm 25 31 mph 1022.2mb 60f 57f
12:24pm 28 31 mph 1022.4mb 60f 57f
12:18pm 24 29 mph 1022.3mb 60f 57f
12:12pm 25 30 mph 1022.2mb 60f 56f
12:06pm 25 29 mph 1022.1mb 60f 57f
12:00pm 26 30 mph 1022.1mb 60f 57f
11:54am 26 29 mph 1022mb 60f 57f
11:48am 26 30 mph 1022mb 60f 56f
11:36am 23 28 mph 1021.7mb 60f 57f
11:30am 25 28 mph 1021.7mb 60f 57f
11:24am 23 26 mph 1021.6mb 60f 57f
11:18am 23 28 mph 1021.5mb 60f 57f
11:12am 22 26 mph 1021.4mb 60f 57f
11:06am 24 28 mph 1021.4mb 60f 57f
11:00am 25 26 mph 1021.2mb 60f 57f
10:54am 23 25 mph 1021.1mb 60f 57f
10:48am 21 23 mph 1021mb 60f 58f
10:36am 18 22 mph 1021mb 60f 58f
10:30am 10 11 mph 1020.9mb 60f 58f
10:24am 11 13 mph 1020.8mb 60f 58f
10:18am 10 13 mph 1020.8mb 60f 58f
10:12am 11 14 mph 1020.8mb 60f 57f
10:06am 14 15 mph 1020.7mb 60f 57f
10:00am 14 15 mph 1020.8mb 60f 57f
9:54am 14 15 mph 1020.7mb 60f 57f
9:48am 14 16 mph 1020.7mb 60f 57f
9:36am 13 15 mph 1020.5mb 60f 57f
9:30am 14 16 mph 1020.5mb 60f 57f
9:24am 14 16 mph 1020.5mb 60f 57f
9:18am 11 14 mph 1020.5mb 60f 57f
9:12am 10 13 mph 1020.5mb 60f 57f
9:06am 11 13 mph 1020.4mb 60f 57f
9:00am 11 13 mph 1020.4mb 60f 57f
8:54am 11 14 mph 1020.3mb 60f 57f
8:48am 9 11 mph 1020.2mb 60f 57f
8:36am 9 10 mph 1020.1mb 61f 57f
8:30am 9 10 mph 1020.1mb 61f 57f
8:24am 9 11 mph 1020.1mb 61f 57f
8:18am 9 11 mph 1020.1mb 61f 57f
8:12am 9 10 mph 1019.8mb 61f 57f
8:06am 9 10 mph 1019.7mb 61f 57f
8:00am 8 10 mph 1019.7mb 61f 57f
7:54am 10 11 mph 1019.8mb 61f 57f
7:48am 9 11 mph 1019.8mb 61f 57f
7:36am 8 10 mph 1019.6mb 61f 57f
7:30am 10 11 mph 1019.5mb 61f 57f
7:24am 9 10 mph 1019.5mb 61f 57f
7:18am 10 11 mph 1019.5mb 61f 57f
7:12am 9 10 mph 1019.4mb 61f 57f
7:06am 9 11 mph 1019.4mb 61f 57f
7:00am 9 11 mph 1019.3mb 61f 57f
6:54am 8 9 mph 1019.3mb 61f 57f
6:48am 7 8 mph 1019.3mb 61f 57f
6:36am 7 8 mph 1019.2mb 61f 57f
6:30am 7 8 mph 1019.2mb 61f 57f
6:24am 7 8 mph 1019.2mb 61f 57f
6:18am 8 9 mph 1019.2mb 61f 56f
6:12am 8 9 mph 1019.1mb 61f 56f
6:06am 7 8 mph 1019mb 61f 56f
6:00am 6 8 mph 1019mb 61f 56f
5:54am 8 9 mph 1018.9mb 61f 56f
5:48am 8 9 mph 1018.9mb 61f 56f
5:36am 8 9 mph 1018.7mb 61f 56f
5:30am 9 10 mph 1018.7mb 61f 56f
5:24am 8 10 mph 1018.7mb 61f 56f
5:18am 9 10 mph 1018.6mb 61f 57f
5:12am 8 9 mph 1018.6mb 61f 57f
5:06am 7 8 mph 1018.6mb 61f 57f
5:00am 5 7 mph 1018.6mb 61f 57f
4:54am 6 7 mph 1018.6mb 61f 57f
4:48am 6 7 mph 1018.5mb 61f 57f
4:36am 6 8 mph 1018.4mb 61f 57f
4:30am 7 8 mph 1018.4mb 61f 57f
4:24am 6 8 mph 1018.3mb 61f 57f
4:18am 6 7 mph 1018.2mb 61f 57f
4:12am 6 7 mph 1018.2mb 61f 57f
4:06am 5 6 mph 1018.1mb 61f 57f
4:00am 6 6 mph 1018.1mb 61f 57f
3:54am 5 6 mph 1018.1mb 61f 57f
3:48am 5 6 mph 1018.2mb 61f 57f
3:36am 5 6 mph 1018.1mb 61f 57f
3:30am 5 6 mph 1018.1mb 61f 57f
3:24am 6 8 mph 1018.2mb 61f 57f
3:18am 7 8 mph 1018.2mb 61f 57f
3:12am 7 8 mph 1018.2mb 61f 57f
3:06am 7 8 mph 1018.2mb 61f 57f
3:00am 6 7 mph 1018.2mb 61f 57f
2:54am 7 8 mph 1018.3mb 61f 57f
2:48am 7 8 mph 1018.2mb 61f 57f
2:36am 6 7 mph 1018.2mb 61f 57f
2:30am 6 7 mph 1018.2mb 61f 57f
2:24am 6 8 mph 1018.3mb 61f 56f
2:18am 7 8 mph 1018.3mb 61f 56f
2:12am 8 9 mph 1018.3mb 61f 56f
2:06am 8 9 mph 1018.3mb 61f 56f
2:00am 8 9 mph 1018.2mb 61f 56f
1:54am 7 8 mph 1018.2mb 61f 56f
1:48am 5 6 mph 1018.1mb 61f 56f
1:36am 6 6 mph 1018.2mb 61f 57f
1:30am 6 7 mph 1018.2mb 61f 56f
1:24am 7 8 mph 1018.2mb 61f 56f
1:18am 7 9 mph 1018.1mb 61f 56f
1:12am 7 8 mph 1018mb 61f 56f
1:06am 8 9 mph 1018mb 61f 56f
1:00am 7 8 mph 1018mb 61f 56f
12:54am 9 10 mph 1018.1mb 61f 57f
12:48am 7 9 mph 1018.1mb 61f 57f
12:36am 8 9 mph 1018.1mb 61f 57f
12:30am 9 10 mph 1018.1mb 61f 57f
12:24am 8 9 mph 1018.1mb 61f 57f
12:18am 7 9 mph 1018mb 61f 57f
12:12am 8 10 mph 1018mb 61f 57f
12:06am 9 10 mph 1018mb 61f 57f
12:00am 8 10 mph 1018mb 61f 57f
Mon 06/19 11:54pm 8 9 mph 1018mb 61f 58f
11:48pm 8 10 mph 1018mb 61f 58f
11:36pm 8 10 mph 1018mb 61f 58f
11:30pm 9 10 mph 1017.9mb 61f 58f
11:24pm 7 9 mph 1017.9mb 60f 58f
11:18pm 7 9 mph 1017.8mb 60f 58f
11:12pm 8 9 mph 1017.8mb 60f 58f
11:06pm 8 8 mph 1017.9mb 60f 58f
11:00pm 7 8 mph 1017.8mb 61f 58f
10:54pm 7 9 mph 1017.9mb 60f 58f
10:48pm 8 9 mph 1017.9mb 60f 58f
10:36pm 7 8 mph 1017.8mb 60f 59f
10:30pm 7 8 mph 1017.8mb 60f 58f
10:24pm 7 9 mph 1017.7mb 60f 58f
10:18pm 7 8 mph 1017.6mb 60f 58f
10:12pm 7 8 mph 1017.5mb 60f 58f
10:06pm 7 8 mph 1017.5mb 60f 58f
10:00pm 6 7 mph 1017.4mb 60f 58f
9:54pm 6 7 mph 1017.1mb 60f 58f
9:48pm 6 8 mph 1017.2mb 60f 58f
9:36pm 7 9 mph 1017.2mb 60f 58f
9:30pm 7 8 mph 1017.1mb 60f 58f
9:24pm 5 7 mph 1017mb 60f 58f
9:18pm 6 10 mph 1017.1mb 60f 58f
9:12pm 7 10 mph 1017.1mb 60f 58f
9:06pm 7 9 mph 1017.2mb 60f 58f
9:00pm 8 10 mph 1017.1mb 60f 58f
8:54pm 7 9 mph 1017.1mb 60f 58f
8:48pm 8 9 mph 1017.2mb 60f 58f
8:36pm 6 7 mph 1017.2mb - 58f
8:30pm 5 6 mph 1017.2mb - 58f
8:24pm 6 7 mph 1017.2mb - 58f
8:18pm 6 8 mph 1017.2mb - 58f
8:12pm 8 10 mph 1017.3mb - 58f
8:06pm 8 10 mph 1017.2mb - 57f
8:00pm 9 10 mph 1017.2mb - 58f
7:54pm 9 10 mph 1017.2mb - 58f
7:48pm 10 13 mph 1017.2mb - 58f
7:36pm 13 14 mph 1017mb 61f 58f
7:30pm 13 15 mph 1016.9mb 61f 58f
7:24pm 14 15 mph 1016.9mb 61f 59f
7:18pm 14 16 mph 1017.1mb 61f 59f
7:12pm 14 17 mph 1017mb 61f 59f
7:06pm 14 15 mph 1016.9mb 61f 60f
7:00pm 10 13 mph 1017mb 61f 60f
6:54pm 10 11 mph 1016.9mb 61f 60f
6:48pm 13 14 mph 1016.9mb 61f 60f
6:36pm 10 11 mph 1016.8mb 61f 60f
6:30pm 9 13 mph 1016.8mb 61f 60f
6:24pm 11 14 mph 1016.7mb 61f 60f
6:18pm 13 14 mph 1016.7mb 61f 60f
6:12pm 10 13 mph 1016.6mb 61f 60f
6:06pm 10 11 mph 1016.7mb 61f 59f
6:00pm 11 13 mph 1016.7mb 61f 59f
5:54pm 14 15 mph 1016.8mb 61f 59f
5:48pm 14 16 mph 1017mb 61f 59f
5:36pm 16 17 mph 1017.1mb 61f 59f
5:30pm 15 17 mph 1017.1mb 61f 59f
5:24pm 15 17 mph 1017mb 61f 60f
5:18pm 14 17 mph 1016.9mb 61f 60f
5:12pm 15 17 mph 1017.1mb 61f 60f
5:06pm 15 15 mph 1017.1mb 61f 60f
5:00pm 13 14 mph 1016.9mb 61f 60f
4:54pm 13 13 mph 1016.8mb 61f 60f
4:48pm 10 13 mph 1016.7mb 61f 60f
4:36pm 9 11 mph 1016.7mb 61f 60f
4:30pm 11 13 mph 1016.7mb 61f 61f
4:24pm 11 13 mph 1016.7mb 61f 61f
4:18pm 11 13 mph 1016.7mb 61f 61f
4:12pm 10 11 mph 1016.7mb 61f 61f
4:06pm 11 11 mph 1016.7mb 61f 61f
4:00pm 11 13 mph 1016.7mb 61f 61f
3:54pm 11 13 mph 1016.8mb 61f 62f
3:48pm 11 13 mph 1016.8mb 61f 62f
3:36pm 11 14 mph 1016.8mb 61f 62f
3:30pm 10 11 mph 1016.8mb 61f 62f
3:24pm 11 14 mph 1017mb 61f 61f
3:18pm 13 15 mph 1017mb 61f 61f
3:12pm 13 14 mph 1016.9mb 61f 61f
3:06pm 13 14 mph 1016.9mb 61f 61f
3:00pm 14 15 mph 1016.8mb 61f 61f
2:54pm 14 16 mph 1016.7mb 61f 60f
2:48pm 16 18 mph 1016.7mb 61f 60f
2:36pm 16 17 mph 1016.6mb 61f 60f
2:30pm 15 17 mph 1016.5mb 61f 61f
2:24pm 13 15 mph 1016.3mb 61f 61f
2:18pm 15 18 mph 1016.4mb 61f 61f
2:12pm 16 18 mph 1016.5mb 61f 61f
2:06pm 15 16 mph 1016.4mb 61f 61f
2:00pm 10 13 mph 1016.3mb 61f 62f
1:54pm 9 11 mph 1016.3mb 61f 62f
1:48pm 10 11 mph 1016.3mb 61f 63f
1:36pm 7 8 mph 1016.3mb 61f 64f
1:30pm 8 9 mph 1016.4mb 61f 63f
1:24pm 8 11 mph 1016.4mb 61f 63f
1:18pm 11 16 mph 1016.5mb 61f 62f
1:12pm 14 17 mph 1016.6mb 61f 62f
1:06pm 14 17 mph 1016.7mb 61f 62f
1:00pm 10 13 mph 1016.7mb 61f 61f
12:54pm 11 13 mph 1016.6mb 61f 61f
12:48pm 10 13 mph 1016.6mb 61f 61f
12:36pm 10 13 mph 1016.4mb 61f 60f
12:30pm 11 14 mph 1016.4mb 61f 60f
12:24pm 13 14 mph 1016.4mb 61f 61f
12:18pm 8 9 mph 1016.4mb 61f 62f
12:12pm 6 8 mph 1016.3mb 61f 62f
12:06pm 7 8 mph 1016.3mb 61f 62f
12:00pm 5 6 mph 1016.2mb 61f 62f
11:54am 5 7 mph 1016.4mb 60f 62f
11:48am 6 8 mph 1016.4mb 60f 61f
11:36am 10 14 mph 1016.6mb 60f 60f
11:30am 13 16 mph 1016.7mb 60f 60f
11:24am 14 15 mph 1016.7mb 60f 60f
11:18am 11 14 mph 1016.7mb 60f 61f
11:12am 10 11 mph 1016.7mb 60f 62f
11:06am 9 9 mph 1016.7mb 60f 62f
11:00am 9 10 mph 1016.7mb 60f 61f
10:54am 9 10 mph 1016.7mb 60f 61f
10:48am 9 13 mph 1016.8mb 60f 60f
10:36am 6 8 mph 1016.7mb 60f 62f
10:30am 5 6 mph 1016.6mb 60f 61f
10:24am 6 7 mph 1016.8mb 60f 60f
10:18am 8 9 mph 1016.8mb 60f 59f
10:12am 8 9 mph 1016.8mb 60f 59f
10:06am 10 13 mph 1017mb 60f 59f
10:00am 11 14 mph 1017mb 60f 59f
9:54am 11 15 mph 1017.1mb 60f 61f
9:48am 7 9 mph 1017.1mb 60f 61f
9:36am 7 10 mph 1017mb 60f 62f
9:30am 8 10 mph 1017.1mb 60f 61f
9:24am 7 11 mph 1017mb 60f 62f
9:18am 9 11 mph 1017mb 60f 62f
9:12am 8 14 mph 1017mb 60f 62f
9:06am 9 14 mph 1017mb 60f 62f
9:00am 10 15 mph 1016.9mb 60f 61f
8:54am 11 15 mph 1016.8mb 60f 61f
8:48am 13 16 mph 1016.7mb 60f 60f
8:36am 13 18 mph 1016.4mb 60f 60f
8:30am 14 17 mph 1016.3mb 60f 60f
8:24am 14 16 mph 1016.3mb 60f 60f
8:18am 13 16 mph 1016.4mb 60f 60f
8:12am 10 15 mph 1016.5mb 60f 60f
8:06am 11 15 mph 1016.4mb 60f 60f
8:00am 10 14 mph 1016.3mb 60f 60f
7:54am 13 16 mph 1016.3mb 60f 60f
7:48am 14 17 mph 1016.3mb 60f 60f
7:36am 14 16 mph 1016.2mb 60f 60f
7:30am 14 17 mph 1016.3mb 60f 59f
7:24am 14 16 mph 1016.3mb 60f 59f
7:18am 11 17 mph 1016.3mb 60f 59f
7:12am 11 16 mph 1016.4mb 60f 59f
7:06am 15 17 mph 1016.4mb 60f 59f
7:00am 13 16 mph 1016.4mb 60f 59f
6:54am 11 16 mph 1016.5mb 60f 59f
6:48am 13 16 mph 1016.5mb 60f 59f
6:36am 10 14 mph 1016.5mb 60f 59f
6:30am 13 16 mph 1016.6mb 60f 60f
6:24am 14 16 mph 1016.6mb 60f 59f
6:18am 11 14 mph 1016.5mb 60f 59f
6:12am 10 14 mph 1016.5mb 60f 59f